createdAt,value
2023-08-07T00:01:56.035Z,88.39
2023-08-07T00:04:22.889Z,87.57
2023-08-07T00:06:50.010Z,90.33
2023-08-07T00:09:16.706Z,91.78
2023-08-07T00:11:43.350Z,94.28
2023-08-07T00:14:10.167Z,94.46
2023-08-07T00:16:36.789Z,93.36
2023-08-07T00:19:04.009Z,94.06
2023-08-07T00:21:30.906Z,93.10
2023-08-07T00:23:57.622Z,93.83
2023-08-07T00:26:24.217Z,95.01
2023-08-07T00:28:50.846Z,95.82
2023-08-07T00:31:17.626Z,95.71
2023-08-07T00:33:44.434Z,96.61
2023-08-07T00:36:11.152Z,95.43
2023-08-07T00:38:37.823Z,95.58
2023-08-07T00:41:04.514Z,95.66
2023-08-07T00:43:31.182Z,95.52
2023-08-07T00:45:58.159Z,93.40
2023-08-07T00:48:24.872Z,93.30
2023-08-07T00:50:52.433Z,93.15
2023-08-07T00:53:19.274Z,92.88
2023-08-07T00:55:47.167Z,92.63
2023-08-07T00:58:14.388Z,95.40
2023-08-07T01:00:43.225Z,95.84
2023-08-07T01:03:12.848Z,97.85
2023-08-07T01:05:39.690Z,97.89
2023-08-07T01:08:06.704Z,97.17
2023-08-07T01:10:36.392Z,97.23
2023-08-07T01:13:24.516Z,98.86
2023-08-07T01:15:56.519Z,97.94
2023-08-07T01:18:24.040Z,99.10
2023-08-07T01:20:50.650Z,99.89
2023-08-07T01:23:17.353Z,98.28
2023-08-07T01:25:44.298Z,100.00
2023-08-07T01:28:27.006Z,99.70
2023-08-07T01:31:00.228Z,100.00
2023-08-07T01:33:39.865Z,100.00
2023-08-07T01:36:08.299Z,100.00
2023-08-07T01:38:36.513Z,100.00
2023-08-07T01:41:04.043Z,100.00
2023-08-07T01:43:32.279Z,100.00
2023-08-07T01:45:59.728Z,100.00
2023-08-07T01:48:27.268Z,100.00
2023-08-07T01:50:55.234Z,100.00
2023-08-07T01:53:21.962Z,100.00
2023-08-07T01:55:48.640Z,100.00
2023-08-07T01:58:15.234Z,100.00
2023-08-07T02:00:41.948Z,100.00
2023-08-07T02:03:08.630Z,100.00
2023-08-07T02:05:35.472Z,100.00
2023-08-07T02:08:02.047Z,100.00
2023-08-07T02:10:29.346Z,100.00
2023-08-07T02:12:58.909Z,100.00
2023-08-07T02:15:25.495Z,100.00
2023-08-07T02:17:52.300Z,100.00
2023-08-07T02:20:19.005Z,100.00
2023-08-07T02:22:45.625Z,100.00
2023-08-07T02:25:12.226Z,100.00
2023-08-07T02:27:39.166Z,100.00
2023-08-07T02:30:06.629Z,100.00
2023-08-07T02:32:33.383Z,100.00
2023-08-07T02:35:00.106Z,100.00
2023-08-07T02:37:26.796Z,100.00
2023-08-07T02:39:55.000Z,100.00
2023-08-07T02:42:21.853Z,100.00
2023-08-07T02:44:48.536Z,100.00
2023-08-07T02:47:15.162Z,100.00
2023-08-07T02:49:41.891Z,100.00
2023-08-07T02:52:08.773Z,100.00
2023-08-07T02:54:35.415Z,100.00
2023-08-07T02:57:02.128Z,100.00
2023-08-07T02:59:28.754Z,100.00
2023-08-07T03:01:55.477Z,100.00
2023-08-07T03:04:22.581Z,100.00
2023-08-07T03:06:49.274Z,100.00
2023-08-07T03:09:15.932Z,100.00
2023-08-07T03:11:42.571Z,100.00
2023-08-07T03:14:09.297Z,100.00
2023-08-07T03:16:36.025Z,100.00
2023-08-07T03:19:02.760Z,100.00
2023-08-07T03:21:29.455Z,100.00
2023-08-07T03:23:56.171Z,100.00
2023-08-07T03:26:22.893Z,100.00
2023-08-07T03:28:50.227Z,100.00
2023-08-07T03:31:17.148Z,100.00
2023-08-07T03:33:43.905Z,100.00
2023-08-07T03:36:10.780Z,100.00
2023-08-07T03:38:37.514Z,100.00
2023-08-07T03:41:04.602Z,100.00
2023-08-07T03:43:31.284Z,100.00
2023-08-07T03:46:02.172Z,100.00
2023-08-07T03:48:29.974Z,100.00
2023-08-07T03:51:04.542Z,100.00
2023-08-07T03:53:31.337Z,100.00
2023-08-07T03:55:57.950Z,100.00
2023-08-07T03:58:24.630Z,100.00
2023-08-07T04:00:52.969Z,100.00
2023-08-07T04:03:23.003Z,100.00
2023-08-07T04:05:54.161Z,100.00
2023-08-07T04:08:21.666Z,100.00
2023-08-07T04:11:04.535Z,100.00
2023-08-07T04:13:32.444Z,100.00
2023-08-07T04:15:59.556Z,100.00
2023-08-07T04:18:26.304Z,100.00
2023-08-07T04:20:55.091Z,100.00
2023-08-07T04:23:22.751Z,100.00
2023-08-07T04:25:50.202Z,100.00
2023-08-07T04:28:17.102Z,100.00
2023-08-07T04:30:45.622Z,100.00
2023-08-07T04:33:12.524Z,99.86
2023-08-07T04:35:39.225Z,99.08
2023-08-07T04:38:05.931Z,98.21
2023-08-07T04:40:32.566Z,99.29
2023-08-07T04:42:59.303Z,99.70
2023-08-07T04:45:26.029Z,98.47
2023-08-07T04:47:52.973Z,97.73
2023-08-07T04:50:19.730Z,96.73
2023-08-07T04:52:46.497Z,98.36
2023-08-07T04:55:13.292Z,97.17
2023-08-07T04:57:40.005Z,97.46
2023-08-07T05:00:07.305Z,96.28
2023-08-07T05:02:33.972Z,96.40
2023-08-07T05:05:00.842Z,95.07
2023-08-07T05:07:27.471Z,96.20
2023-08-07T05:09:54.746Z,96.20
2023-08-07T05:12:21.528Z,95.82
2023-08-07T05:14:48.145Z,96.55
2023-08-07T05:17:14.976Z,93.41
2023-08-07T05:19:41.624Z,92.22
2023-08-07T05:22:08.340Z,90.73
2023-08-07T05:24:40.138Z,93.22
2023-08-07T05:27:09.562Z,90.49
2023-08-07T05:29:44.452Z,89.95
2023-08-07T05:32:15.809Z,91.77
2023-08-07T05:34:42.853Z,91.11
2023-08-07T05:37:09.642Z,89.12
2023-08-07T05:39:36.831Z,89.24
2023-08-07T05:42:03.846Z,88.80
2023-08-07T05:44:30.664Z,88.40
2023-08-07T05:46:57.351Z,89.72
2023-08-07T05:49:26.284Z,89.97
2023-08-07T05:51:54.061Z,87.46
2023-08-07T05:54:21.075Z,82.55
2023-08-07T05:56:47.799Z,80.30
2023-08-07T05:59:14.591Z,75.60
2023-08-07T06:01:42.229Z,72.49
2023-08-07T06:04:10.246Z,69.92
2023-08-07T06:06:37.578Z,65.54
2023-08-07T06:09:07.763Z,63.88
2023-08-07T06:11:34.619Z,58.63
2023-08-07T06:14:01.565Z,57.93
2023-08-07T06:16:28.760Z,56.87
2023-08-07T06:18:55.452Z,53.59
2023-08-07T06:21:22.373Z,51.59
2023-08-07T06:23:49.087Z,52.82
2023-08-07T06:26:15.804Z,51.84
2023-08-07T06:28:43.858Z,50.71
2023-08-07T06:31:12.572Z,49.42
2023-08-07T06:33:39.738Z,48.00
2023-08-07T06:36:07.792Z,48.93
2023-08-07T06:38:34.484Z,48.19
2023-08-07T06:41:01.263Z,46.56
2023-08-07T06:43:27.992Z,48.30
2023-08-07T06:45:56.803Z,46.74
2023-08-07T06:48:23.671Z,45.81
2023-08-07T06:50:51.733Z,45.70
2023-08-07T06:53:18.572Z,46.37
2023-08-07T06:55:45.222Z,43.62
2023-08-07T06:58:11.814Z,44.91
2023-08-07T07:00:38.496Z,44.81
2023-08-07T07:03:05.419Z,45.40
2023-08-07T07:05:33.645Z,46.67
2023-08-07T07:08:00.956Z,45.21
2023-08-07T07:10:27.747Z,47.00
2023-08-07T07:12:54.464Z,46.03
2023-08-07T07:15:21.108Z,45.42
2023-08-07T07:17:47.901Z,45.09
2023-08-07T07:20:14.745Z,43.87
2023-08-07T07:22:41.497Z,42.18
2023-08-07T07:25:08.651Z,43.14
2023-08-07T07:27:35.305Z,42.25
2023-08-07T07:30:01.996Z,43.49
2023-08-07T07:32:28.968Z,44.11
2023-08-07T07:34:55.693Z,45.04
2023-08-07T07:37:22.606Z,43.33
2023-08-07T07:39:49.151Z,44.31
2023-08-07T07:42:15.856Z,44.72
2023-08-07T07:44:43.832Z,45.60
2023-08-07T07:47:13.627Z,43.98
2023-08-07T07:49:40.810Z,41.83
2023-08-07T07:52:08.041Z,43.53
2023-08-07T07:54:36.455Z,42.44
2023-08-07T07:57:03.184Z,44.70
2023-08-07T07:59:29.820Z,44.52
2023-08-07T08:01:56.849Z,42.59
2023-08-07T08:04:24.376Z,42.90
2023-08-07T08:06:51.202Z,45.57
2023-08-07T08:09:17.954Z,44.80
2023-08-07T08:11:44.752Z,44.64
2023-08-07T08:14:11.536Z,45.03
2023-08-07T08:16:38.206Z,43.58
2023-08-07T08:19:05.051Z,46.61
2023-08-07T08:21:32.617Z,45.05
2023-08-07T08:24:00.515Z,46.35
2023-08-07T08:26:27.255Z,45.33
2023-08-07T08:28:53.984Z,44.08
2023-08-07T08:31:22.699Z,43.61
2023-08-07T08:33:49.450Z,42.54
2023-08-07T08:36:16.230Z,45.77
2023-08-07T08:38:43.014Z,44.85
2023-08-07T08:41:10.417Z,46.64
2023-08-07T08:43:37.400Z,45.72
2023-08-07T08:46:05.336Z,43.89
2023-08-07T08:48:39.583Z,46.90
2023-08-07T08:51:09.543Z,45.00
2023-08-07T08:53:37.116Z,45.72
2023-08-07T08:56:03.857Z,42.92
2023-08-07T08:58:30.949Z,41.45
2023-08-07T09:00:57.622Z,45.62
2023-08-07T09:03:24.780Z,42.87
2023-08-07T09:05:54.000Z,43.64
2023-08-07T09:08:20.873Z,43.76
2023-08-07T09:10:47.388Z,41.45
2023-08-07T09:13:15.451Z,42.52
2023-08-07T09:15:42.482Z,43.33
2023-08-07T09:18:09.203Z,45.00
2023-08-07T09:20:37.222Z,41.88
2023-08-07T09:23:03.815Z,39.83
2023-08-07T09:25:34.418Z,39.93
2023-08-07T09:28:07.977Z,40.90
2023-08-07T09:30:35.916Z,42.17
2023-08-07T09:33:02.851Z,38.17
2023-08-07T09:35:30.811Z,41.38
2023-08-07T09:38:00.271Z,39.81
2023-08-07T09:40:26.775Z,41.76
2023-08-07T09:42:54.011Z,35.99
2023-08-07T09:45:20.620Z,35.89
2023-08-07T09:47:47.494Z,36.58
2023-08-07T09:50:18.269Z,37.59
2023-08-07T09:52:49.552Z,40.68
2023-08-07T09:55:17.092Z,38.67
2023-08-07T09:57:44.650Z,39.27
2023-08-07T10:00:16.494Z,40.30
2023-08-07T10:02:43.993Z,39.16
2023-08-07T10:05:14.172Z,36.83
2023-08-07T10:07:41.445Z,35.45
2023-08-07T10:10:08.821Z,38.83
2023-08-07T10:12:35.373Z,39.78
2023-08-07T10:15:02.548Z,38.16
2023-08-07T10:17:29.228Z,36.85
2023-08-07T10:19:55.863Z,37.11
2023-08-07T10:22:24.169Z,37.09
2023-08-07T10:24:51.348Z,38.41
2023-08-07T10:27:19.731Z,36.61
2023-08-07T10:29:47.485Z,37.40
2023-08-07T10:32:17.046Z,41.03
2023-08-07T10:34:47.809Z,36.36
2023-08-07T10:37:33.259Z,39.27
2023-08-07T10:40:06.252Z,37.77
2023-08-07T10:42:51.120Z,39.79
2023-08-07T10:45:23.404Z,37.79
2023-08-07T10:48:02.951Z,39.00
2023-08-07T10:50:30.868Z,36.89
2023-08-07T10:52:57.465Z,37.15
2023-08-07T10:55:24.987Z,37.03
2023-08-07T10:57:51.557Z,37.47
2023-08-07T11:00:18.317Z,36.43
2023-08-07T11:02:49.186Z,38.14
2023-08-07T11:05:15.864Z,37.95
2023-08-07T11:07:42.913Z,37.50
2023-08-07T11:10:09.889Z,37.37
2023-08-07T11:12:37.589Z,38.28
2023-08-07T11:15:04.312Z,35.90
2023-08-07T11:17:30.891Z,38.75
2023-08-07T11:19:57.895Z,34.13
2023-08-07T11:22:24.675Z,34.43
2023-08-07T11:24:51.879Z,37.11
2023-08-07T11:27:18.412Z,36.93
2023-08-07T11:29:49.104Z,35.38
2023-08-07T11:32:15.668Z,37.14
2023-08-07T11:34:47.788Z,37.05
2023-08-07T11:37:18.524Z,35.66
2023-08-07T11:39:45.392Z,40.10
2023-08-07T11:42:11.939Z,36.77
2023-08-07T11:44:38.588Z,39.63
2023-08-07T11:47:05.283Z,35.68
2023-08-07T11:49:31.798Z,37.46
2023-08-07T11:51:58.361Z,36.60
2023-08-07T11:54:24.927Z,36.37
2023-08-07T11:56:51.494Z,36.24
2023-08-07T11:59:19.161Z,38.83
2023-08-07T12:01:46.950Z,37.75
2023-08-07T12:04:14.434Z,37.09
2023-08-07T12:06:53.273Z,36.97
2023-08-07T12:09:19.803Z,36.63
2023-08-07T12:11:46.410Z,39.35
2023-08-07T12:14:19.014Z,41.11
2023-08-07T12:16:46.925Z,37.97
2023-08-07T12:19:14.251Z,38.30
2023-08-07T12:21:40.792Z,38.26
2023-08-07T12:24:08.182Z,37.87
2023-08-07T12:26:34.669Z,36.96
2023-08-07T12:29:01.248Z,37.16
2023-08-07T12:31:27.927Z,35.72
2023-08-07T12:33:55.196Z,38.67
2023-08-07T12:36:22.513Z,35.56
2023-08-07T12:38:49.136Z,41.45
2023-08-07T12:43:45.586Z,40.70
2023-08-07T12:48:41.590Z,39.95
2023-08-07T12:51:08.151Z,39.20
2023-08-07T12:53:34.795Z,37.61
2023-08-07T12:56:01.440Z,36.68
2023-08-07T12:58:30.704Z,36.77
2023-08-07T13:00:57.527Z,35.36
2023-08-07T13:03:24.186Z,39.12
2023-08-07T13:05:50.701Z,37.11
2023-08-07T13:08:17.270Z,37.33
2023-08-07T13:10:43.817Z,39.30
2023-08-07T13:13:10.387Z,35.87
2023-08-07T13:15:36.947Z,42.38
2023-08-07T13:18:04.452Z,45.18
2023-08-07T13:20:35.183Z,37.19
2023-08-07T13:23:02.762Z,44.18
2023-08-07T13:25:29.308Z,35.74
2023-08-07T13:27:55.890Z,40.12
2023-08-07T13:30:22.540Z,37.85
2023-08-07T13:32:49.133Z,39.57
2023-08-07T13:35:15.647Z,39.82
2023-08-07T13:37:42.132Z,38.89
2023-08-07T13:40:09.063Z,42.44
2023-08-07T13:42:35.703Z,40.92
2023-08-07T13:45:02.186Z,40.61
2023-08-07T13:47:28.781Z,41.51
2023-08-07T13:49:55.827Z,45.71
2023-08-07T13:52:22.660Z,45.68
2023-08-07T13:54:49.170Z,46.17
2023-08-07T13:57:16.408Z,47.62
2023-08-07T13:59:42.980Z,46.38
2023-08-07T14:02:09.944Z,49.42
2023-08-07T14:04:36.505Z,51.47
2023-08-07T14:07:03.467Z,47.23
2023-08-07T14:09:30.002Z,49.61
2023-08-07T14:11:58.337Z,41.28
2023-08-07T14:14:25.217Z,49.82
2023-08-07T14:16:51.919Z,53.67
2023-08-07T14:19:18.840Z,46.05
2023-08-07T14:21:45.433Z,40.32
2023-08-07T14:24:12.067Z,54.97
2023-08-07T14:26:38.706Z,55.05
2023-08-07T14:29:05.247Z,54.41
2023-08-07T14:31:31.815Z,54.38
2023-08-07T14:33:58.918Z,47.73
2023-08-07T14:36:25.655Z,43.99
2023-08-07T14:38:52.213Z,44.81
2023-08-07T14:41:19.865Z,44.71
2023-08-07T14:43:47.738Z,46.86
2023-08-07T14:46:14.871Z,49.25
2023-08-07T14:48:41.463Z,48.03
2023-08-07T14:51:08.349Z,48.50
2023-08-07T14:53:36.148Z,48.97
2023-08-07T14:56:03.029Z,49.24
2023-08-07T14:58:30.377Z,48.03
2023-08-07T15:00:57.407Z,50.18
2023-08-07T15:03:24.007Z,48.97
2023-08-07T15:05:50.535Z,49.46
2023-08-07T15:08:17.096Z,48.74
2023-08-07T15:10:43.615Z,50.86
2023-08-07T15:13:10.167Z,50.52
2023-08-07T15:15:36.908Z,51.28
2023-08-07T15:18:04.797Z,50.34
2023-08-07T15:20:31.915Z,50.42
2023-08-07T15:22:58.497Z,50.64
2023-08-07T15:25:25.267Z,52.57
2023-08-07T15:27:51.870Z,53.06
2023-08-07T15:30:18.450Z,51.41
2023-08-07T15:32:45.064Z,50.28
2023-08-07T15:35:11.683Z,48.04
2023-08-07T15:37:38.348Z,47.46
2023-08-07T15:40:05.111Z,47.09
2023-08-07T15:42:31.871Z,48.56
2023-08-07T15:44:58.834Z,50.21
2023-08-07T15:47:25.538Z,48.14
2023-08-07T15:49:52.153Z,48.85
2023-08-07T15:52:19.573Z,49.12
2023-08-07T15:54:47.259Z,48.71
2023-08-07T15:57:14.468Z,48.50
2023-08-07T15:59:41.671Z,49.37
2023-08-07T16:02:09.049Z,50.15
2023-08-07T16:04:35.776Z,50.77
2023-08-07T16:07:02.308Z,49.85
2023-08-07T16:09:28.941Z,50.84
2023-08-07T16:11:55.410Z,51.55
2023-08-07T16:14:24.342Z,52.22
2023-08-07T16:16:52.153Z,52.37
2023-08-07T16:19:19.566Z,52.52
2023-08-07T16:21:46.112Z,51.40
2023-08-07T16:24:12.715Z,52.51
2023-08-07T16:26:39.238Z,52.38
2023-08-07T16:29:05.800Z,53.16
2023-08-07T16:31:32.423Z,53.59
2023-08-07T16:33:59.042Z,52.64
2023-08-07T16:36:25.573Z,50.97
2023-08-07T16:38:53.172Z,53.10
2023-08-07T16:41:19.805Z,52.56
2023-08-07T16:43:46.482Z,52.83
2023-08-07T16:46:13.133Z,53.35
2023-08-07T16:48:39.748Z,53.69
2023-08-07T16:51:15.142Z,53.15
2023-08-07T16:53:43.000Z,52.93
2023-08-07T16:56:10.736Z,54.06
2023-08-07T16:58:37.715Z,53.35
2023-08-07T17:01:04.316Z,54.21
2023-08-07T17:03:30.822Z,53.16
2023-08-07T17:05:57.502Z,53.07
2023-08-07T17:08:24.138Z,53.70
2023-08-07T17:10:51.025Z,54.63
2023-08-07T17:13:17.512Z,54.19
2023-08-07T17:15:44.207Z,54.55
2023-08-07T17:18:10.783Z,54.32
2023-08-07T17:20:37.360Z,53.94
2023-08-07T17:23:03.922Z,54.24
2023-08-07T17:25:30.512Z,52.67
2023-08-07T17:27:57.122Z,54.59
2023-08-07T17:30:23.718Z,54.99
2023-08-07T17:32:50.382Z,54.99
2023-08-07T17:35:17.080Z,54.80
2023-08-07T17:37:43.676Z,55.71
2023-08-07T17:40:10.594Z,55.68
2023-08-07T17:42:37.127Z,55.03
2023-08-07T17:45:03.885Z,55.41
2023-08-07T17:47:32.361Z,55.20
2023-08-07T17:50:02.396Z,55.43
2023-08-07T17:52:31.352Z,54.77
2023-08-07T17:54:58.061Z,55.02
2023-08-07T17:57:24.632Z,55.31
2023-08-07T17:59:52.843Z,53.92
2023-08-07T18:02:19.428Z,54.43
2023-08-07T18:04:45.975Z,54.95
2023-08-07T18:07:12.555Z,55.48
2023-08-07T18:09:39.107Z,54.31
2023-08-07T18:12:05.847Z,55.10
2023-08-07T18:14:32.461Z,55.11
2023-08-07T18:16:59.330Z,56.53
2023-08-07T18:19:26.082Z,55.85
2023-08-07T18:21:53.290Z,56.85
2023-08-07T18:24:19.878Z,56.00
2023-08-07T18:26:46.347Z,57.40
2023-08-07T18:29:12.945Z,56.30
2023-08-07T18:31:39.537Z,56.75
2023-08-07T18:34:06.088Z,55.97
2023-08-07T18:36:32.735Z,56.86
2023-08-07T18:38:59.273Z,56.36
2023-08-07T18:41:25.865Z,56.36
2023-08-07T18:43:52.647Z,55.64
2023-08-07T18:46:19.199Z,56.18
2023-08-07T18:48:45.869Z,56.33
2023-08-07T18:51:12.372Z,56.96
2023-08-07T18:53:40.364Z,56.78
2023-08-07T18:56:07.031Z,57.87
2023-08-07T18:58:35.150Z,58.07
2023-08-07T19:01:01.766Z,58.60
2023-08-07T19:03:28.480Z,58.33
2023-08-07T19:05:55.139Z,58.48
2023-08-07T19:08:21.758Z,57.16
2023-08-07T19:10:48.618Z,57.43
2023-08-07T19:13:15.154Z,57.62
2023-08-07T19:15:41.659Z,57.06
2023-08-07T19:18:08.258Z,56.04
2023-08-07T19:20:34.799Z,71.27
2023-08-07T19:23:03.434Z,66.02
2023-08-07T19:25:29.961Z,73.27
2023-08-07T19:27:56.476Z,63.69
2023-08-07T19:30:23.026Z,65.22
2023-08-07T19:32:49.641Z,66.33
2023-08-07T19:35:16.335Z,63.21
2023-08-07T19:37:43.192Z,64.80
2023-08-07T19:40:10.171Z,66.13
2023-08-07T19:42:36.743Z,67.52
2023-08-07T19:45:03.506Z,67.08
2023-08-07T19:47:35.991Z,67.48
2023-08-07T19:50:03.448Z,65.02
2023-08-07T19:52:30.046Z,68.50
2023-08-07T19:54:56.569Z,67.43
2023-08-07T19:57:23.075Z,67.02
2023-08-07T19:59:49.575Z,69.50
2023-08-07T20:02:16.237Z,68.87
2023-08-07T20:04:42.845Z,66.61
2023-08-07T20:07:09.476Z,66.23
2023-08-07T20:09:39.087Z,67.54
2023-08-07T20:12:07.391Z,72.48
2023-08-07T20:14:34.442Z,73.15
2023-08-07T20:17:01.094Z,76.89
2023-08-07T20:19:27.606Z,79.21
2023-08-07T20:21:54.139Z,83.10
2023-08-07T20:24:20.721Z,83.93
2023-08-07T20:26:47.271Z,86.76
2023-08-07T20:29:13.779Z,90.24
2023-08-07T20:31:40.370Z,91.82
2023-08-07T20:34:06.965Z,89.18
2023-08-07T20:36:33.872Z,89.22
2023-08-07T20:39:00.482Z,92.89
2023-08-07T20:41:26.972Z,95.40
2023-08-07T20:43:54.126Z,96.55
2023-08-07T20:46:20.785Z,96.75
2023-08-07T20:48:51.081Z,98.97
2023-08-07T20:51:18.004Z,95.63
2023-08-07T20:53:47.365Z,100.00
2023-08-07T20:56:14.333Z,100.00
2023-08-07T20:58:40.929Z,100.00
2023-08-07T21:01:07.610Z,100.00
2023-08-07T21:03:34.485Z,100.00
2023-08-07T21:06:01.118Z,100.00
2023-08-07T21:08:27.773Z,100.00
2023-08-07T21:10:55.664Z,100.00
2023-08-07T21:13:22.937Z,100.00
2023-08-07T21:15:49.546Z,100.00
2023-08-07T21:18:16.096Z,100.00
2023-08-07T21:20:42.684Z,100.00
2023-08-07T21:23:13.495Z,100.00
2023-08-07T21:25:40.199Z,100.00
2023-08-07T21:28:06.797Z,100.00
2023-08-07T21:30:33.442Z,100.00
2023-08-07T21:33:00.079Z,100.00
2023-08-07T21:35:27.101Z,100.00
2023-08-07T21:37:53.890Z,100.00
2023-08-07T21:40:21.812Z,100.00
2023-08-07T21:42:48.423Z,100.00
2023-08-07T21:45:15.153Z,100.00
2023-08-07T21:47:44.144Z,100.00
2023-08-07T21:50:14.405Z,100.00
2023-08-07T21:52:40.987Z,100.00
2023-08-07T21:55:07.756Z,100.00
2023-08-07T21:57:34.477Z,100.00
2023-08-07T22:00:01.114Z,100.00
2023-08-07T22:02:27.907Z,100.00
2023-08-07T22:04:54.614Z,100.00
2023-08-07T22:07:21.124Z,100.00
2023-08-07T22:09:47.695Z,100.00
2023-08-07T22:12:14.226Z,100.00
2023-08-07T22:14:40.707Z,100.00
2023-08-07T22:17:08.063Z,100.00
2023-08-07T22:19:34.763Z,100.00
2023-08-07T22:22:02.377Z,98.38
2023-08-07T22:24:29.376Z,95.44
2023-08-07T22:26:55.944Z,98.71
2023-08-07T22:29:22.440Z,98.16
2023-08-07T22:31:49.071Z,97.95
2023-08-07T22:34:15.699Z,99.69
2023-08-07T22:36:42.294Z,100.00
2023-08-07T22:39:08.970Z,100.00
2023-08-07T22:41:35.533Z,100.00
2023-08-07T22:44:02.039Z,99.99
2023-08-07T22:46:28.652Z,100.00
2023-08-07T22:48:55.272Z,100.00
2023-08-07T22:51:21.758Z,99.98
2023-08-07T22:53:48.262Z,100.00
2023-08-07T22:56:14.839Z,100.00
2023-08-07T22:58:41.401Z,100.00
2023-08-07T23:01:08.642Z,100.00
2023-08-07T23:03:35.320Z,100.00
2023-08-07T23:06:01.966Z,99.53
2023-08-07T23:08:28.452Z,99.54
2023-08-07T23:10:55.079Z,98.87
2023-08-07T23:13:21.697Z,97.34
2023-08-07T23:15:48.454Z,97.08
2023-08-07T23:18:15.151Z,96.92
2023-08-07T23:20:41.788Z,97.61
2023-08-07T23:23:08.315Z,97.33
2023-08-07T23:25:35.616Z,99.00
2023-08-07T23:28:02.771Z,100.00
2023-08-07T23:30:29.964Z,100.00
2023-08-07T23:32:56.716Z,100.00
2023-08-07T23:35:23.400Z,100.00
2023-08-07T23:37:49.941Z,100.00
2023-08-07T23:40:16.518Z,100.00
2023-08-07T23:42:43.083Z,100.00
2023-08-07T23:45:10.004Z,100.00
2023-08-07T23:47:36.775Z,100.00
2023-08-07T23:50:03.563Z,100.00
2023-08-07T23:52:30.296Z,100.00
2023-08-07T23:54:57.035Z,99.72
2023-08-07T23:57:23.585Z,100.00
2023-08-07T23:59:50.192Z,100.00
